QFA511 YBBN-YSSY
Flight info
| Callsign | QFA511 |
|---|---|
| Flight time | 1h 23m |
| Altitude | 34000 |
| Route | BN H91 IGDAM H652 TESAT |
| Aircraft | B738/M-SDE2E3FGHIRWXY/LB1 |
Departure
| Time | 2026-05-06 22:02 |
|---|---|
| Airport | Brisbane International Airport (YBBN) |
Arrival
| Time | 2026-05-06 23:26 |
|---|---|
| Airport | Sydney Kingsford Smith International Airport (YSSY) |
| Time | Latitude | Longitude | Altitude | Speed | Heading |
|---|---|---|---|---|---|
| 2026-05-06 21:37 | -27.38290 | 153.12282 | 22 ft | 0 kts | 259° |
| 2026-05-06 21:54 | -27.38286 | 153.12306 | 20 ft | 4 kts | 259° |
| 2026-05-06 21:54 | -27.38282 | 153.12329 | 22 ft | 4 kts | 253° |
| 2026-05-06 21:54 | -27.38275 | 153.12356 | 24 ft | 4 kts | 282° |
| 2026-05-06 21:55 | -27.38284 | 153.12382 | 23 ft | 4 kts | 307° |
| 2026-05-06 21:55 | -27.38303 | 153.12398 | 25 ft | 3 kts | 349° |
| 2026-05-06 21:55 | -27.38326 | 153.12403 | 20 ft | 2 kts | 349° |
| 2026-05-06 21:55 | -27.38327 | 153.12403 | 20 ft | 0 kts | 349° |
| 2026-05-06 21:58 | -27.38324 | 153.12402 | 20 ft | 2 kts | 347° |
| 2026-05-06 21:58 | -27.38291 | 153.12406 | 23 ft | 4 kts | 18° |
| 2026-05-06 21:59 | -27.38276 | 153.12431 | 22 ft | 3 kts | 72° |
| 2026-05-06 21:59 | -27.38278 | 153.12467 | 20 ft | 6 kts | 100° |
| 2026-05-06 21:59 | -27.38289 | 153.12513 | 20 ft | 4 kts | 111° |
| 2026-05-06 21:59 | -27.38296 | 153.12532 | 20 ft | 2 kts | 99° |
| 2026-05-06 22:00 | -27.38294 | 153.12580 | 20 ft | 12 kts | 63° |
| 2026-05-06 22:00 | -27.38241 | 153.12623 | 22 ft | 16 kts | 23° |
| 2026-05-06 22:00 | -27.38054 | 153.12724 | 22 ft | 21 kts | 28° |
| 2026-05-06 22:00 | -27.38000 | 153.12788 | 20 ft | 15 kts | 74° |
| 2026-05-06 22:01 | -27.38020 | 153.12885 | 20 ft | 12 kts | 117° |
| 2026-05-06 22:01 | -27.38052 | 153.12962 | 20 ft | 10 kts | 118° |
| 2026-05-06 22:01 | -27.38087 | 153.13024 | 22 ft | 8 kts | 128° |
| 2026-05-06 22:01 | -27.38132 | 153.13049 | 21 ft | 7 kts | 188° |
| 2026-05-06 22:02 | -27.38206 | 153.13013 | 22 ft | 32 kts | 207° |
| 2026-05-06 22:02 | -27.38715 | 153.12721 | 20 ft | 130 kts | 208° |
| 2026-05-06 22:02 | -27.39744 | 153.12145 | 311 ft | 187 kts | 205° |
| 2026-05-06 22:02 | -27.40955 | 153.11533 | 1544 ft | 190 kts | 206° |
| 2026-05-06 22:03 | -27.42194 | 153.11005 | 2847 ft | 198 kts | 197° |
| 2026-05-06 22:03 | -27.43618 | 153.10988 | 3594 ft | 209 kts | 167° |
| 2026-05-06 22:03 | -27.44927 | 153.11759 | 4176 ft | 216 kts | 144° |
| 2026-05-06 22:03 | -27.46123 | 153.12753 | 4992 ft | 216 kts | 147° |
| 2026-05-06 22:04 | -27.47464 | 153.13674 | 5383 ft | 237 kts | 153° |
| 2026-05-06 22:04 | -27.48975 | 153.14549 | 5911 ft | 252 kts | 161° |
| 2026-05-06 22:04 | -27.50705 | 153.14829 | 6650 ft | 258 kts | 188° |
| 2026-05-06 22:04 | -27.52535 | 153.14435 | 7196 ft | 274 kts | 196° |
| 2026-05-06 22:05 | -27.54407 | 153.13905 | 8012 ft | 281 kts | 196° |
| 2026-05-06 22:05 | -27.56307 | 153.13315 | 8896 ft | 285 kts | 201° |
| 2026-05-06 22:05 | -27.58186 | 153.12558 | 9821 ft | 288 kts | 203° |
| 2026-05-06 22:05 | -27.60094 | 153.11772 | 10554 ft | 299 kts | 203° |
| 2026-05-06 22:06 | -27.62144 | 153.10939 | 10775 ft | 327 kts | 202° |
| 2026-05-06 22:06 | -27.64373 | 153.10140 | 10985 ft | 353 kts | 200° |
| 2026-05-06 22:06 | -27.66810 | 153.09337 | 11308 ft | 374 kts | 199° |
| 2026-05-06 22:06 | -27.69353 | 153.08518 | 12056 ft | 384 kts | 200° |
| 2026-05-06 22:07 | -27.71938 | 153.07680 | 12951 ft | 386 kts | 200° |
| 2026-05-06 22:07 | -27.74531 | 153.06824 | 13672 ft | 391 kts | 201° |
| 2026-05-06 22:07 | -27.77160 | 153.05945 | 14289 ft | 396 kts | 201° |
| 2026-05-06 22:07 | -27.79815 | 153.05055 | 14919 ft | 400 kts | 201° |
| 2026-05-06 22:08 | -27.82494 | 153.04141 | 15552 ft | 403 kts | 203° |
| 2026-05-06 22:08 | -27.85136 | 153.03070 | 16164 ft | 405 kts | 206° |
| 2026-05-06 22:08 | -27.87766 | 153.01899 | 16757 ft | 408 kts | 207° |
| 2026-05-06 22:08 | -27.90420 | 153.00694 | 17341 ft | 412 kts | 207° |
| 2026-05-06 22:09 | -27.93094 | 152.99487 | 17896 ft | 416 kts | 207° |
| 2026-05-06 22:09 | -27.95807 | 152.98280 | 18446 ft | 420 kts | 207° |
| 2026-05-06 22:09 | -27.98505 | 152.97092 | 18909 ft | 423 kts | 207° |
| 2026-05-06 22:09 | -28.01295 | 152.95871 | 19417 ft | 425 kts | 207° |
| 2026-05-06 22:10 | -28.04026 | 152.94678 | 19912 ft | 427 kts | 207° |
| 2026-05-06 22:10 | -28.06809 | 152.93460 | 20403 ft | 430 kts | 207° |
| 2026-05-06 22:10 | -28.09605 | 152.92235 | 20877 ft | 432 kts | 208° |
| 2026-05-06 22:10 | -28.12415 | 152.90991 | 21377 ft | 434 kts | 208° |
| 2026-05-06 22:11 | -28.15236 | 152.89735 | 21855 ft | 436 kts | 208° |
| 2026-05-06 22:11 | -28.18066 | 152.88472 | 22309 ft | 439 kts | 208° |
| 2026-05-06 22:11 | -28.20925 | 152.87195 | 22734 ft | 442 kts | 208° |
| 2026-05-06 22:11 | -28.23794 | 152.85914 | 23175 ft | 445 kts | 209° |
| 2026-05-06 22:12 | -28.26454 | 152.84726 | 23556 ft | 447 kts | 209° |
| 2026-05-06 22:12 | -28.27779 | 152.84134 | 23726 ft | 449 kts | 209° |
| 2026-05-06 22:12 | -28.30667 | 152.82848 | 24384 ft | 440 kts | 210° |
| 2026-05-06 22:12 | -28.33541 | 152.81565 | 24586 ft | 449 kts | 210° |
| 2026-05-06 22:13 | -28.36474 | 152.80247 | 24734 ft | 456 kts | 210° |
| 2026-05-06 22:13 | -28.39440 | 152.78913 | 25075 ft | 459 kts | 210° |
| 2026-05-06 22:13 | -28.42406 | 152.77587 | 25462 ft | 460 kts | 210° |
| 2026-05-06 22:13 | -28.45394 | 152.76254 | 25842 ft | 461 kts | 211° |
| 2026-05-06 22:14 | -28.48387 | 152.74918 | 26151 ft | 463 kts | 211° |
| 2026-05-06 22:14 | -28.51394 | 152.73571 | 26434 ft | 465 kts | 211° |
| 2026-05-06 22:14 | -28.54405 | 152.72221 | 26719 ft | 467 kts | 212° |
| 2026-05-06 22:14 | -28.57442 | 152.70857 | 27003 ft | 469 kts | 212° |
| 2026-05-06 22:15 | -28.60485 | 152.69492 | 27347 ft | 471 kts | 211° |
| 2026-05-06 22:15 | -28.63549 | 152.68120 | 27665 ft | 473 kts | 211° |
| 2026-05-06 22:15 | -28.66605 | 152.66747 | 28064 ft | 471 kts | 212° |
| 2026-05-06 22:15 | -28.69652 | 152.65379 | 28551 ft | 469 kts | 212° |
| 2026-05-06 22:16 | -28.72676 | 152.64018 | 29057 ft | 466 kts | 212° |
| 2026-05-06 22:16 | -28.75690 | 152.62659 | 29511 ft | 465 kts | 213° |
| 2026-05-06 22:16 | -28.78698 | 152.61301 | 29954 ft | 464 kts | 213° |
| 2026-05-06 22:16 | -28.81698 | 152.59948 | 30382 ft | 463 kts | 213° |
| 2026-05-06 22:17 | -28.84684 | 152.58598 | 30836 ft | 460 kts | 213° |
| 2026-05-06 22:17 | -28.87559 | 152.57090 | 31247 ft | 451 kts | 218° |
| 2026-05-06 22:17 | -28.90333 | 152.55462 | 31631 ft | 447 kts | 219° |
| 2026-05-06 22:17 | -28.93071 | 152.53795 | 32040 ft | 445 kts | 220° |
| 2026-05-06 22:18 | -28.95758 | 152.52149 | 32424 ft | 444 kts | 220° |
| 2026-05-06 22:18 | -28.98515 | 152.50472 | 32760 ft | 443 kts | 220° |
| 2026-05-06 22:18 | -29.01201 | 152.48838 | 32976 ft | 444 kts | 220° |
| 2026-05-06 22:18 | -29.03931 | 152.47195 | 33398 ft | 442 kts | 220° |
| 2026-05-06 22:19 | -29.06650 | 152.45576 | 33906 ft | 439 kts | 220° |
| 2026-05-06 22:19 | -29.09360 | 152.43962 | 34093 ft | 441 kts | 220° |
| 2026-05-06 22:19 | -29.14825 | 152.40695 | 34098 ft | 443 kts | 220° |
| 2026-05-06 22:20 | -29.20264 | 152.37459 | 34116 ft | 437 kts | 220° |
| 2026-05-06 22:20 | -29.25654 | 152.34236 | 34123 ft | 436 kts | 220° |
| 2026-05-06 22:21 | -29.31025 | 152.31014 | 34135 ft | 435 kts | 220° |
| 2026-05-06 22:21 | -29.36368 | 152.27815 | 34140 ft | 436 kts | 220° |
| 2026-05-06 22:22 | -29.41771 | 152.24570 | 34122 ft | 438 kts | 220° |
| 2026-05-06 22:22 | -29.47176 | 152.21319 | 34112 ft | 437 kts | 220° |
| 2026-05-06 22:23 | -29.52561 | 152.18082 | 34142 ft | 438 kts | 219° |
| 2026-05-06 22:23 | -29.57962 | 152.14826 | 34145 ft | 439 kts | 219° |
| 2026-05-06 22:24 | -29.63377 | 152.11561 | 34155 ft | 440 kts | 219° |
| 2026-05-06 22:24 | -29.68826 | 152.08298 | 34130 ft | 445 kts | 217° |
| 2026-05-06 22:25 | -29.71745 | 152.06977 | 34125 ft | 460 kts | 208° |
| 2026-05-06 22:25 | -29.74887 | 152.06085 | 34193 ft | 467 kts | 204° |
| 2026-05-06 22:25 | -29.81276 | 152.04500 | 34135 ft | 470 kts | 203° |
| 2026-05-06 22:26 | -29.87664 | 152.02905 | 34130 ft | 470 kts | 203° |
| 2026-05-06 22:26 | -29.93997 | 152.01270 | 34133 ft | 469 kts | 204° |
| 2026-05-06 22:27 | -30.00356 | 151.99603 | 34149 ft | 468 kts | 203° |
| 2026-05-06 22:27 | -30.06720 | 151.97930 | 34128 ft | 468 kts | 203° |
| 2026-05-06 22:28 | -30.13084 | 151.96258 | 34128 ft | 469 kts | 203° |
| 2026-05-06 22:28 | -30.19433 | 151.94590 | 34133 ft | 468 kts | 203° |
| 2026-05-06 22:29 | -30.25780 | 151.92920 | 34132 ft | 468 kts | 203° |
| 2026-05-06 22:29 | -30.32122 | 151.91227 | 34141 ft | 465 kts | 205° |
| 2026-05-06 22:30 | -30.38048 | 151.88730 | 34141 ft | 453 kts | 213° |
| 2026-05-06 22:30 | -30.43871 | 151.85911 | 34143 ft | 453 kts | 213° |
| 2026-05-06 22:31 | -30.49715 | 151.83107 | 34147 ft | 456 kts | 212° |
| 2026-05-06 22:31 | -30.55601 | 151.80337 | 34145 ft | 458 kts | 211° |
| 2026-05-06 22:32 | -30.61510 | 151.77576 | 34148 ft | 458 kts | 211° |
| 2026-05-06 22:32 | -30.67436 | 151.74806 | 34167 ft | 459 kts | 211° |
| 2026-05-06 22:33 | -30.73371 | 151.72025 | 34144 ft | 460 kts | 210° |
| 2026-05-06 22:33 | -30.79271 | 151.69257 | 34132 ft | 460 kts | 210° |
| 2026-05-06 22:34 | -30.85211 | 151.66465 | 34144 ft | 460 kts | 210° |
| 2026-05-06 22:34 | -30.91137 | 151.63676 | 34164 ft | 460 kts | 210° |
| 2026-05-06 22:35 | -30.97068 | 151.60883 | 34142 ft | 459 kts | 210° |
| 2026-05-06 22:35 | -31.02995 | 151.58085 | 34135 ft | 459 kts | 210° |
| 2026-05-06 22:36 | -31.08913 | 151.55288 | 34143 ft | 458 kts | 210° |
| 2026-05-06 22:36 | -31.14821 | 151.52492 | 34151 ft | 459 kts | 210° |
| 2026-05-06 22:37 | -31.20734 | 151.49690 | 34143 ft | 458 kts | 210° |
| 2026-05-06 22:37 | -31.26641 | 151.46887 | 34131 ft | 458 kts | 210° |
| 2026-05-06 22:38 | -31.32495 | 151.44106 | 34152 ft | 457 kts | 210° |
| 2026-05-06 22:38 | -31.38393 | 151.41298 | 34151 ft | 457 kts | 210° |
| 2026-05-06 22:39 | -31.44340 | 151.38591 | 34137 ft | 459 kts | 209° |
| 2026-05-06 22:39 | -31.50314 | 151.35960 | 34130 ft | 459 kts | 209° |
| 2026-05-06 22:40 | -31.56279 | 151.33319 | 34169 ft | 458 kts | 209° |
| 2026-05-06 22:40 | -31.62236 | 151.30660 | 34148 ft | 458 kts | 209° |
| 2026-05-06 22:41 | -31.71162 | 151.26659 | 34130 ft | 458 kts | 209° |
| 2026-05-06 22:42 | -31.77110 | 151.23991 | 34138 ft | 457 kts | 209° |
| 2026-05-06 22:42 | -31.83041 | 151.21325 | 34150 ft | 456 kts | 210° |
| 2026-05-06 22:43 | -31.88972 | 151.18655 | 34130 ft | 456 kts | 210° |
| 2026-05-06 22:43 | -31.94849 | 151.16010 | 34141 ft | 456 kts | 210° |
| 2026-05-06 22:44 | -32.00793 | 151.13344 | 34165 ft | 457 kts | 210° |
| 2026-05-06 22:44 | -32.06761 | 151.10668 | 34125 ft | 459 kts | 210° |
| 2026-05-06 22:45 | -32.12726 | 151.07991 | 34120 ft | 458 kts | 210° |
| 2026-05-06 22:45 | -32.18676 | 151.05316 | 34109 ft | 451 kts | 210° |
| 2026-05-06 22:45 | -32.21553 | 151.04033 | 34141 ft | 434 kts | 211° |
| 2026-05-06 22:46 | -32.24329 | 151.02794 | 34113 ft | 419 kts | 212° |
| 2026-05-06 22:46 | -32.27018 | 151.01588 | 34098 ft | 405 kts | 212° |
| 2026-05-06 22:46 | -32.29607 | 151.00420 | 34096 ft | 392 kts | 213° |
| 2026-05-06 22:46 | -32.32109 | 150.99289 | 34086 ft | 379 kts | 213° |
| 2026-05-06 22:47 | -32.34534 | 150.98191 | 34106 ft | 370 kts | 213° |
| 2026-05-06 22:47 | -32.39421 | 150.95945 | 34124 ft | 386 kts | 213° |
| 2026-05-06 22:48 | -32.44490 | 150.93643 | 34108 ft | 395 kts | 212° |
| 2026-05-06 22:48 | -32.48912 | 150.91951 | 34092 ft | 409 kts | 201° |
| 2026-05-06 22:48 | -32.51784 | 150.91623 | 34105 ft | 421 kts | 191° |
| 2026-05-06 22:49 | -32.55710 | 150.92058 | 34114 ft | 432 kts | 181° |
| 2026-05-06 22:49 | -32.60654 | 150.93027 | 34085 ft | 432 kts | 180° |
| 2026-05-06 22:50 | -32.66565 | 150.94184 | 34160 ft | 430 kts | 182° |
| 2026-05-06 22:50 | -32.72495 | 150.95266 | 34116 ft | 431 kts | 182° |
| 2026-05-06 22:51 | -32.78446 | 150.96335 | 34078 ft | 433 kts | 182° |
| 2026-05-06 22:51 | -32.84401 | 150.97395 | 34097 ft | 433 kts | 182° |
| 2026-05-06 22:52 | -32.90382 | 150.98452 | 34072 ft | 434 kts | 182° |
| 2026-05-06 22:52 | -32.96376 | 150.99515 | 33994 ft | 438 kts | 183° |
| 2026-05-06 22:52 | -32.99410 | 151.00051 | 33439 ft | 442 kts | 182° |
| 2026-05-06 22:53 | -33.02449 | 151.00594 | 32951 ft | 442 kts | 182° |
| 2026-05-06 22:53 | -33.05487 | 151.01139 | 32467 ft | 441 kts | 182° |
| 2026-05-06 22:53 | -33.08530 | 151.01684 | 31986 ft | 441 kts | 182° |
| 2026-05-06 22:53 | -33.11568 | 151.02229 | 31511 ft | 441 kts | 182° |
| 2026-05-06 22:54 | -33.14606 | 151.02771 | 31046 ft | 441 kts | 182° |
| 2026-05-06 22:54 | -33.17638 | 151.03305 | 30601 ft | 440 kts | 182° |
| 2026-05-06 22:54 | -33.20669 | 151.03853 | 30182 ft | 440 kts | 182° |
| 2026-05-06 22:54 | -33.23699 | 151.04395 | 29627 ft | 439 kts | 183° |
| 2026-05-06 22:55 | -33.26669 | 151.04439 | 29090 ft | 416 kts | 200° |
| 2026-05-06 22:55 | -33.29381 | 151.03592 | 28576 ft | 391 kts | 215° |
| 2026-05-06 22:55 | -33.31669 | 151.02099 | 28089 ft | 371 kts | 228° |
| 2026-05-06 22:55 | -33.33547 | 151.00105 | 27572 ft | 353 kts | 239° |
| 2026-05-06 22:56 | -33.34952 | 150.97787 | 27099 ft | 337 kts | 250° |
| 2026-05-06 22:56 | -33.35886 | 150.95271 | 26609 ft | 325 kts | 260° |
| 2026-05-06 22:56 | -33.36355 | 150.92672 | 26258 ft | 314 kts | 271° |
| 2026-05-06 22:56 | -33.36386 | 150.90149 | 26212 ft | 295 kts | 279° |
| 2026-05-06 22:57 | -33.36054 | 150.87769 | 25817 ft | 289 kts | 287° |
| 2026-05-06 22:57 | -33.35361 | 150.85519 | 25341 ft | 288 kts | 295° |
| 2026-05-06 22:57 | -33.34348 | 150.83463 | 24841 ft | 285 kts | 303° |
| 2026-05-06 22:57 | -33.33058 | 150.81671 | 24340 ft | 285 kts | 311° |
| 2026-05-06 22:58 | -33.31529 | 150.80142 | 23877 ft | 287 kts | 317° |
| 2026-05-06 22:58 | -33.29859 | 150.78819 | 23380 ft | 289 kts | 324° |
| 2026-05-06 22:58 | -33.28002 | 150.77844 | 22838 ft | 296 kts | 336° |
| 2026-05-06 22:58 | -33.25989 | 150.77352 | 22318 ft | 300 kts | 341° |
| 2026-05-06 22:59 | -33.23933 | 150.76950 | 21791 ft | 299 kts | 342° |
| 2026-05-06 22:59 | -33.21884 | 150.76565 | 21285 ft | 298 kts | 342° |
| 2026-05-06 22:59 | -33.19840 | 150.76183 | 20780 ft | 297 kts | 342° |
| 2026-05-06 22:59 | -33.17802 | 150.75800 | 20283 ft | 296 kts | 342° |
| 2026-05-06 23:00 | -33.15772 | 150.75418 | 19793 ft | 295 kts | 342° |
| 2026-05-06 23:00 | -33.13720 | 150.75198 | 19301 ft | 304 kts | 355° |
| 2026-05-06 23:00 | -33.11606 | 150.75654 | 18837 ft | 313 kts | 6° |
| 2026-05-06 23:00 | -33.09528 | 150.76500 | 18378 ft | 318 kts | 13° |
| 2026-05-06 23:01 | -33.07521 | 150.77682 | 17817 ft | 324 kts | 23° |
| 2026-05-06 23:01 | -33.05682 | 150.79295 | 17291 ft | 332 kts | 36° |
| 2026-05-06 23:01 | -33.04147 | 150.81381 | 16775 ft | 340 kts | 49° |
| 2026-05-06 23:01 | -33.03010 | 150.83875 | 16276 ft | 346 kts | 64° |
| 2026-05-06 23:02 | -33.02402 | 150.86617 | 16138 ft | 338 kts | 79° |
| 2026-05-06 23:02 | -33.02434 | 150.89357 | 16085 ft | 327 kts | 102° |
| 2026-05-06 23:02 | -33.03102 | 150.91907 | 15957 ft | 319 kts | 114° |
| 2026-05-06 23:02 | -33.04071 | 150.94242 | 15873 ft | 322 kts | 123° |
| 2026-05-06 23:03 | -33.05318 | 150.96489 | 15569 ft | 330 kts | 131° |
| 2026-05-06 23:03 | -33.06833 | 150.98543 | 15153 ft | 328 kts | 142° |
| 2026-05-06 23:03 | -33.08637 | 151.00149 | 14749 ft | 320 kts | 156° |
| 2026-05-06 23:03 | -33.10629 | 151.01266 | 14336 ft | 313 kts | 166° |
| 2026-05-06 23:04 | -33.12682 | 151.02032 | 13934 ft | 307 kts | 172° |
| 2026-05-06 23:04 | -33.14756 | 151.02600 | 13497 ft | 304 kts | 175° |
| 2026-05-06 23:04 | -33.16823 | 151.03061 | 13065 ft | 301 kts | 177° |
| 2026-05-06 23:04 | -33.18888 | 151.03473 | 12635 ft | 300 kts | 178° |
| 2026-05-06 23:05 | -33.20943 | 151.03873 | 12198 ft | 299 kts | 178° |
| 2026-05-06 23:05 | -33.22992 | 151.04262 | 11749 ft | 297 kts | 178° |
| 2026-05-06 23:05 | -33.24995 | 151.04641 | 11590 ft | 286 kts | 178° |
| 2026-05-06 23:05 | -33.26960 | 151.05019 | 11283 ft | 286 kts | 178° |
| 2026-05-06 23:06 | -33.28977 | 151.05398 | 11064 ft | 307 kts | 178° |
| 2026-05-06 23:06 | -33.31209 | 151.05821 | 10871 ft | 342 kts | 176° |
| 2026-05-06 23:06 | -33.33659 | 151.06288 | 10639 ft | 368 kts | 176° |
| 2026-05-06 23:06 | -33.36200 | 151.06776 | 10374 ft | 371 kts | 175° |
| 2026-05-06 23:07 | -33.38750 | 151.07274 | 10144 ft | 367 kts | 176° |
| 2026-05-06 23:07 | -33.41227 | 151.07755 | 9895 ft | 354 kts | 176° |
| 2026-05-06 23:07 | -33.43590 | 151.08212 | 9650 ft | 344 kts | 176° |
| 2026-05-06 23:07 | -33.45922 | 151.08662 | 9344 ft | 333 kts | 176° |
| 2026-05-06 23:08 | -33.48177 | 151.09098 | 9056 ft | 325 kts | 177° |
| 2026-05-06 23:08 | -33.50386 | 151.09525 | 8805 ft | 317 kts | 176° |
| 2026-05-06 23:08 | -33.52545 | 151.09938 | 8543 ft | 312 kts | 176° |
| 2026-05-06 23:08 | -33.54672 | 151.10347 | 8278 ft | 307 kts | 176° |
| 2026-05-06 23:09 | -33.56767 | 151.10745 | 8022 ft | 301 kts | 176° |
| 2026-05-06 23:09 | -33.58817 | 151.11136 | 7789 ft | 297 kts | 176° |
| 2026-05-06 23:09 | -33.60845 | 151.11530 | 7528 ft | 293 kts | 176° |
| 2026-05-06 23:09 | -33.62840 | 151.11921 | 7282 ft | 289 kts | 176° |
| 2026-05-06 23:10 | -33.64812 | 151.12265 | 7060 ft | 284 kts | 178° |
| 2026-05-06 23:10 | -33.66759 | 151.12647 | 6809 ft | 283 kts | 176° |
| 2026-05-06 23:10 | -33.68668 | 151.13045 | 6739 ft | 272 kts | 177° |
| 2026-05-06 23:10 | -33.70497 | 151.13424 | 6776 ft | 264 kts | 177° |
| 2026-05-06 23:11 | -33.72313 | 151.13784 | 6790 ft | 266 kts | 177° |
| 2026-05-06 23:11 | -33.74161 | 151.14140 | 6791 ft | 272 kts | 177° |
| 2026-05-06 23:11 | -33.76041 | 151.14503 | 6787 ft | 274 kts | 177° |
| 2026-05-06 23:11 | -33.77891 | 151.14863 | 6780 ft | 272 kts | 177° |
| 2026-05-06 23:12 | -33.79758 | 151.15226 | 6776 ft | 272 kts | 177° |
| 2026-05-06 23:12 | -33.81613 | 151.15395 | 6766 ft | 261 kts | 194° |
| 2026-05-06 23:12 | -33.83357 | 151.14925 | 6777 ft | 256 kts | 201° |
| 2026-05-06 23:12 | -33.85089 | 151.14396 | 6772 ft | 257 kts | 201° |
| 2026-05-06 23:13 | -33.86838 | 151.13867 | 6737 ft | 262 kts | 201° |
| 2026-05-06 23:13 | -33.88613 | 151.13342 | 6617 ft | 263 kts | 200° |
| 2026-05-06 23:13 | -33.90386 | 151.12826 | 6471 ft | 260 kts | 200° |
| 2026-05-06 23:13 | -33.92129 | 151.12323 | 6302 ft | 254 kts | 201° |
| 2026-05-06 23:14 | -33.93828 | 151.11833 | 6143 ft | 249 kts | 201° |
| 2026-05-06 23:14 | -33.95514 | 151.11346 | 6008 ft | 249 kts | 201° |
| 2026-05-06 23:14 | -33.97198 | 151.10858 | 5858 ft | 250 kts | 201° |
| 2026-05-06 23:14 | -33.98888 | 151.10369 | 5717 ft | 250 kts | 201° |
| 2026-05-06 23:15 | -34.00574 | 151.09882 | 5570 ft | 250 kts | 201° |
| 2026-05-06 23:15 | -34.02266 | 151.09392 | 5407 ft | 250 kts | 200° |
| 2026-05-06 23:15 | -34.03951 | 151.08905 | 5280 ft | 248 kts | 200° |
| 2026-05-06 23:15 | -34.05630 | 151.08420 | 5122 ft | 248 kts | 200° |
| 2026-05-06 23:16 | -34.07303 | 151.07940 | 4982 ft | 247 kts | 199° |
| 2026-05-06 23:16 | -34.09049 | 151.07943 | 4821 ft | 258 kts | 175° |
| 2026-05-06 23:16 | -34.10797 | 151.08428 | 4680 ft | 257 kts | 175° |
| 2026-05-06 23:16 | -34.12534 | 151.08893 | 4529 ft | 255 kts | 175° |
| 2026-05-06 23:17 | -34.14240 | 151.09341 | 4378 ft | 253 kts | 175° |
| 2026-05-06 23:17 | -34.15955 | 151.09788 | 4213 ft | 251 kts | 176° |
| 2026-05-06 23:17 | -34.17660 | 151.10229 | 4064 ft | 249 kts | 176° |
| 2026-05-06 23:17 | -34.19354 | 151.10670 | 3919 ft | 249 kts | 176° |
| 2026-05-06 23:18 | -34.21057 | 151.10989 | 3808 ft | 246 kts | 182° |
| 2026-05-06 23:18 | -34.22756 | 151.11179 | 3764 ft | 246 kts | 180° |
| 2026-05-06 23:18 | -34.24389 | 151.11911 | 3744 ft | 261 kts | 150° |
| 2026-05-06 23:18 | -34.25610 | 151.13611 | 3740 ft | 279 kts | 121° |
| 2026-05-06 23:19 | -34.26088 | 151.15901 | 3691 ft | 287 kts | 91° |
| 2026-05-06 23:19 | -34.25781 | 151.18270 | 3630 ft | 286 kts | 75° |
| 2026-05-06 23:19 | -34.25258 | 151.20595 | 3527 ft | 287 kts | 71° |
| 2026-05-06 23:19 | -34.24292 | 151.22672 | 3400 ft | 283 kts | 40° |
| 2026-05-06 23:20 | -34.22656 | 151.23794 | 3321 ft | 263 kts | 4° |
| 2026-05-06 23:20 | -34.20893 | 151.23953 | 3308 ft | 249 kts | 350° |
| 2026-05-06 23:20 | -34.19197 | 151.23828 | 3301 ft | 238 kts | 347° |
| 2026-05-06 23:20 | -34.17618 | 151.23566 | 3311 ft | 219 kts | 341° |
| 2026-05-06 23:21 | -34.16194 | 151.23227 | 3298 ft | 200 kts | 339° |
| 2026-05-06 23:21 | -34.14866 | 151.22881 | 3283 ft | 193 kts | 337° |
| 2026-05-06 23:21 | -34.13574 | 151.22538 | 3301 ft | 194 kts | 338° |
| 2026-05-06 23:21 | -34.12240 | 151.22185 | 3214 ft | 199 kts | 339° |
| 2026-05-06 23:22 | -34.10870 | 151.21828 | 2954 ft | 203 kts | 340° |
| 2026-05-06 23:22 | -34.09501 | 151.21474 | 2680 ft | 200 kts | 340° |
| 2026-05-06 23:22 | -34.08148 | 151.21122 | 2426 ft | 198 kts | 340° |
| 2026-05-06 23:22 | -34.06808 | 151.20773 | 2157 ft | 195 kts | 341° |
| 2026-05-06 23:23 | -34.05496 | 151.20431 | 1892 ft | 190 kts | 342° |
| 2026-05-06 23:23 | -34.04240 | 151.20105 | 1634 ft | 179 kts | 342° |
| 2026-05-06 23:23 | -34.03059 | 151.19797 | 1388 ft | 170 kts | 341° |
| 2026-05-06 23:23 | -34.01931 | 151.19501 | 1155 ft | 160 kts | 340° |
| 2026-05-06 23:24 | -34.00859 | 151.19224 | 953 ft | 157 kts | 342° |
| 2026-05-06 23:24 | -33.99824 | 151.18960 | 797 ft | 150 kts | 343° |
| 2026-05-06 23:24 | -33.98806 | 151.18677 | 543 ft | 149 kts | 342° |
| 2026-05-06 23:24 | -33.97810 | 151.18397 | 360 ft | 143 kts | 345° |
| 2026-05-06 23:25 | -33.96910 | 151.18177 | 171 ft | 124 kts | 347° |
| 2026-05-06 23:25 | -33.96114 | 151.17981 | 35 ft | 108 kts | 345° |
| 2026-05-06 23:25 | -33.95481 | 151.17815 | 28 ft | 72 kts | 347° |
| 2026-05-06 23:25 | -33.95051 | 151.17703 | 26 ft | 59 kts | 347° |
| 2026-05-06 23:26 | -33.94703 | 151.17646 | 28 ft | 44 kts | 2° |
| 2026-05-06 23:26 | -33.94530 | 151.17677 | 29 ft | 19 kts | 14° |
| 2026-05-06 23:26 | -33.94406 | 151.17718 | 29 ft | 20 kts | 15° |
| 2026-05-06 23:26 | -33.94262 | 151.17709 | 28 ft | 23 kts | 348° |
| 2026-05-06 23:27 | -33.94096 | 151.17661 | 27 ft | 26 kts | 347° |
| 2026-05-06 23:27 | -33.93917 | 151.17611 | 28 ft | 27 kts | 347° |
| 2026-05-06 23:27 | -33.93733 | 151.17563 | 28 ft | 26 kts | 349° |
| 2026-05-06 23:27 | -33.93557 | 151.17518 | 28 ft | 26 kts | 348° |
| 2026-05-06 23:28 | -33.93375 | 151.17501 | 29 ft | 27 kts | 352° |
| 2026-05-06 23:28 | -33.93192 | 151.17456 | 29 ft | 26 kts | 343° |
| 2026-05-06 23:28 | -33.93023 | 151.17412 | 30 ft | 14 kts | 354° |
| 2026-05-06 23:28 | -33.92985 | 151.17455 | 29 ft | 7 kts | 88° |
| 2026-05-06 23:29 | -33.92991 | 151.17508 | 29 ft | 6 kts | 102° |
| 2026-05-06 23:29 | -33.93001 | 151.17569 | 29 ft | 10 kts | 100° |
| 2026-05-06 23:29 | -33.93027 | 151.17692 | 29 ft | 18 kts | 111° |
| 2026-05-06 23:29 | -33.93069 | 151.17808 | 29 ft | 12 kts | 139° |
| 2026-05-06 23:30 | -33.93117 | 151.17808 | 29 ft | 4 kts | 192° |
| 2026-05-06 23:30 | -33.93135 | 151.17803 | 29 ft | 1 kts | 192° |
| 2026-05-06 23:30 | -33.93140 | 151.17802 | 29 ft | 0 kts | 192° |
| 2026-05-06 23:30 | -33.93141 | 151.17802 | 29 ft | 0 kts | 192° |